aviador You're here:

LFQA Decoded Metar

REIMS in FRANCE
Report Time2017-11-25 00:00:00
UTC Time2017-11-25 00:20:37
Flight Rules vfr VFR
WindVRB at 03 kt
Visibility9999 m
Phenomena:N/A
Clouds:N/A
Expected CloudBase > 400 ft AGL from Temp-Dew spread
CeilingNone
Temp08°C (ISA -6)
Dew Point07°C (93% RH)
AAT6.2°C
QNH1011 hPa
Density Alt-249 ft
Elevation312 ft
Report Wrong Elevation
Raw Report
METAR LFQA 250000Z AUTO VRB03KT CAVOK 08/07 Q1011=

Extra information for LFQA:More info

Metar Taf Metar & Taf Last 4 Metars F.Rules Stats Wind Profile Meteogram Temp Stats Airport Information Weather charts Add Link Nearby VenuesMetar ALERT Operation Metar Decoded Social comments